TimeEST,TemperatureF,Dew PointF,Humidity,Sea Level PressureIn,VisibilityMPH,Wind Direction,Wind SpeedMPH,Gust SpeedMPH,PrecipitationIn,Events,Conditions,WindDirDegrees,DateUTC
12:56 AM,14.0,9.1,81,30.38,10.0,Calm,Calm,-,N/A,,Clear,0,2013-02-07 05:56:00
1:56 AM,15.1,10.0,80,30.38,10.0,Calm,Calm,-,N/A,,Clear,0,2013-02-07 06:56:00
2:56 AM,14.0,9.1,81,30.39,10.0,Calm,Calm,-,N/A,,Clear,0,2013-02-07 07:56:00
3:56 AM,13.1,9.1,84,30.38,10.0,Calm,Calm,-,N/A,,Clear,0,2013-02-07 08:56:00
4:56 AM,16.2,11.1,81,30.39,10.0,Calm,Calm,-,N/A,,Scattered Clouds,0,2013-02-07 09:56:00
5:56 AM,17.1,13.1,84,30.38,10.0,Calm,Calm,-,N/A,,Scattered Clouds,0,2013-02-07 10:56:00
6:56 AM,18.1,13.1,81,30.38,10.0,Calm,Calm,-,N/A,,Clear,0,2013-02-07 11:56:00
7:56 AM,20.1,15.1,81,30.39,10.0,Calm,Calm,-,N/A,,Clear,0,2013-02-07 12:56:00
8:56 AM,22.1,15.1,74,30.36,9.0,Calm,Calm,-,N/A,,Clear,0,2013-02-07 13:56:00
9:56 AM,26.1,18.1,72,30.34,10.0,Calm,Calm,-,N/A,,Clear,0,2013-02-07 14:56:00
10:56 AM,30.0,19.0,64,30.33,10.0,Variable,3.5,-,N/A,,Scattered Clouds,0,2013-02-07 15:56:00
11:56 AM,32.9,21.0,62,30.30,10.0,Variable,5.8,-,N/A,,Mostly Cloudy,0,2013-02-07 16:56:00
12:56 PM,36.0,22.1,57,30.26,10.0,ESE,5.8,-,N/A,,Partly Cloudy,110,2013-02-07 17:56:00
1:56 PM,38.8,23.0,53,30.22,10.0,SE,5.8,-,N/A,,Clear,140,2013-02-07 18:56:00
2:56 PM,41.9,24.1,49,30.19,10.0,SE,5.8,-,N/A,,Clear,140,2013-02-07 19:56:00
3:56 PM,41.9,25.2,52,30.18,10.0,ESE,5.8,-,N/A,,Clear,110,2013-02-07 20:56:00
4:56 PM,39.9,25.2,56,30.16,10.0,ESE,6.9,-,N/A,,Clear,110,2013-02-07 21:56:00
5:56 PM,37.9,24.1,57,30.14,10.0,SE,5.8,-,N/A,,Clear,130,2013-02-07 22:56:00
6:56 PM,36.9,24.1,60,30.13,10.0,ESE,8.1,-,N/A,,Clear,120,2013-02-07 23:56:00
7:56 PM,36.0,25.2,65,30.11,10.0,ESE,3.5,-,N/A,,Clear,120,2013-02-08 00:56:00
8:56 PM,34.9,25.2,68,30.08,10.0,ESE,9.2,-,N/A,,Clear,110,2013-02-08 01:56:00
9:56 PM,34.0,25.2,70,30.07,10.0,SE,8.1,-,N/A,,Clear,130,2013-02-08 02:56:00
10:56 PM,32.9,24.1,70,30.04,10.0,SE,5.8,-,N/A,,Clear,130,2013-02-08 03:56:00
11:56 PM,32.9,24.1,70,30.02,10.0,SE,5.8,-,N/A,,Clear,130,2013-02-08 04:56:00